createdAt,value
2022-10-08T00:03:47.217Z,16.23
2022-10-08T00:08:49.997Z,10.85
2022-10-08T00:13:48.801Z,15.90
2022-10-08T00:18:47.612Z,11.32
2022-10-08T00:23:47.202Z,14.18
2022-10-08T00:28:47.000Z,15.60
2022-10-08T00:33:44.276Z,13.60
2022-10-08T00:38:41.596Z,10.23
2022-10-08T00:43:40.785Z,12.07
2022-10-08T00:48:39.387Z,11.30
2022-10-08T00:53:36.852Z,7.93
2022-10-08T00:58:36.296Z,16.48
2022-10-08T01:03:33.496Z,9.33
2022-10-08T01:08:43.201Z,7.57
2022-10-08T01:19:06.397Z,13.60
2022-10-08T01:24:24.543Z,16.30
2022-10-08T01:29:44.838Z,11.32
2022-10-08T01:34:55.152Z,8.90
2022-10-08T01:39:56.667Z,7.95
2022-10-08T01:45:07.987Z,11.02
2022-10-08T01:55:22.542Z,10.18
2022-10-08T02:00:26.077Z,7.82
2022-10-08T02:05:28.410Z,8.80
2022-10-08T02:10:30.411Z,15.98
2022-10-08T02:15:40.903Z,5.47
2022-10-08T02:21:04.301Z,9.07
2022-10-08T02:26:16.126Z,7.00
2022-10-08T02:31:33.635Z,7.57
2022-10-08T02:36:41.697Z,9.13
2022-10-08T02:41:52.502Z,9.40
2022-10-08T02:46:55.671Z,10.30
2022-10-08T02:51:55.507Z,7.05
2022-10-08T02:56:57.172Z,7.63
2022-10-08T03:02:00.372Z,8.63
2022-10-08T03:07:00.127Z,7.22
2022-10-08T03:11:58.172Z,9.95
2022-10-08T03:16:56.113Z,9.70
2022-10-08T03:21:56.758Z,7.07
2022-10-08T03:26:58.961Z,8.27
2022-10-08T03:31:57.437Z,9.10
2022-10-08T03:36:56.211Z,7.93
2022-10-08T03:41:56.384Z,6.72
2022-10-08T03:46:54.608Z,7.63
2022-10-08T03:51:52.813Z,8.40
2022-10-08T03:56:52.261Z,12.13
2022-10-08T04:01:59.471Z,9.57
2022-10-08T04:06:57.813Z,8.38
2022-10-08T04:11:57.066Z,11.85
2022-10-08T04:17:00.577Z,7.15
2022-10-08T04:21:59.286Z,11.30
2022-10-08T04:26:57.836Z,5.57
2022-10-08T04:31:55.808Z,10.35
2022-10-08T04:36:54.071Z,8.90
2022-10-08T04:41:52.517Z,11.23
2022-10-08T04:46:50.115Z,10.27
2022-10-08T04:51:48.539Z,13.43
2022-10-08T04:56:46.725Z,18.42
2022-10-08T05:01:46.284Z,18.43
2022-10-08T05:06:44.890Z,13.68
2022-10-08T05:11:42.674Z,17.13
2022-10-08T05:16:40.790Z,18.65
2022-10-08T05:21:43.104Z,14.57
2022-10-08T05:26:57.443Z,19.45
2022-10-08T05:31:57.663Z,10.57
2022-10-08T05:36:56.579Z,20.20
2022-10-08T05:41:54.675Z,12.45
2022-10-08T05:46:56.152Z,16.95
2022-10-08T05:51:54.745Z,17.35
2022-10-08T05:56:59.902Z,16.15
2022-10-08T06:01:58.987Z,21.80
2022-10-08T06:06:58.866Z,20.55
2022-10-08T06:12:00.316Z,18.13
2022-10-08T06:16:58.837Z,13.07
2022-10-08T06:21:57.171Z,14.73
2022-10-08T06:26:59.841Z,12.70
2022-10-08T06:31:57.447Z,12.75
2022-10-08T06:36:56.415Z,10.43
2022-10-08T06:41:53.743Z,13.15
2022-10-08T06:46:51.047Z,15.98
2022-10-08T06:51:48.449Z,9.95
2022-10-08T06:56:45.671Z,12.50
2022-10-08T07:01:43.285Z,12.82
2022-10-08T07:06:41.065Z,10.00
2022-10-08T07:11:39.744Z,18.90
2022-10-08T07:16:37.104Z,14.70
2022-10-08T07:21:34.502Z,12.60
2022-10-08T07:26:34.492Z,10.88
2022-10-08T07:31:34.640Z,14.23
2022-10-08T07:41:30.504Z,12.90
2022-10-08T07:46:29.431Z,10.40
2022-10-08T07:51:28.268Z,9.25
2022-10-08T07:56:25.917Z,8.02
2022-10-08T08:01:30.489Z,10.43
2022-10-08T08:06:28.869Z,9.85
2022-10-08T08:11:26.107Z,7.30
2022-10-08T08:16:25.964Z,6.38
2022-10-08T08:21:29.022Z,7.95
2022-10-08T08:26:33.131Z,11.40
2022-10-08T08:31:33.080Z,6.65
2022-10-08T08:36:33.449Z,6.07
2022-10-08T08:41:48.405Z,6.85
2022-10-08T08:46:56.824Z,10.35
2022-10-08T08:51:55.209Z,11.43
2022-10-08T08:56:53.985Z,11.40
2022-10-08T09:01:56.273Z,6.05
2022-10-08T09:06:56.563Z,5.65
2022-10-08T09:11:55.139Z,5.60
2022-10-08T09:16:53.432Z,8.70
2022-10-08T09:21:50.695Z,17.42
2022-10-08T09:26:48.140Z,8.90
2022-10-08T09:31:48.171Z,4.47
2022-10-08T09:36:51.914Z,7.20
2022-10-08T09:42:07.943Z,6.90
2022-10-08T09:47:06.654Z,5.95
2022-10-08T09:52:27.058Z,4.55
2022-10-08T09:57:24.821Z,13.48
2022-10-08T10:02:35.139Z,7.75
2022-10-08T10:07:46.021Z,10.13
2022-10-08T10:12:48.196Z,9.30
2022-10-08T10:18:11.601Z,10.43
2022-10-08T10:23:25.010Z,15.05
2022-10-08T10:28:43.274Z,7.00
2022-10-08T10:33:50.753Z,13.43
2022-10-08T10:39:17.406Z,7.68
2022-10-08T10:44:20.351Z,7.53
2022-10-08T10:49:25.113Z,16.45
2022-10-08T10:55:05.436Z,16.48
2022-10-08T11:00:14.894Z,10.88
2022-10-08T11:05:30.777Z,7.00
2022-10-08T11:11:05.581Z,8.15
2022-10-08T11:16:11.866Z,8.18
2022-10-08T11:21:19.835Z,12.27
2022-10-08T11:26:30.985Z,11.38
2022-10-08T11:31:48.436Z,7.55
2022-10-08T11:37:04.240Z,10.27
2022-10-08T11:42:15.995Z,6.28
2022-10-08T11:47:35.072Z,7.28
2022-10-08T11:52:34.444Z,10.53
2022-10-08T11:58:06.672Z,7.30
2022-10-08T12:02:56.481Z,8.43
2022-10-08T12:07:59.192Z,7.32
2022-10-08T12:13:01.885Z,9.77
2022-10-08T12:18:11.314Z,8.23
2022-10-08T12:23:22.356Z,8.33
2022-10-08T12:28:19.602Z,6.80
2022-10-08T12:33:18.995Z,9.80
2022-10-08T12:38:20.495Z,6.35
2022-10-08T12:43:29.231Z,10.10
2022-10-08T12:48:44.772Z,11.15
2022-10-08T12:53:46.885Z,13.57
2022-10-08T12:58:47.640Z,6.80
2022-10-08T13:03:45.034Z,7.13
2022-10-08T13:08:42.923Z,12.13
2022-10-08T13:13:40.184Z,10.82
2022-10-08T13:18:39.003Z,9.20
2022-10-08T13:23:44.459Z,9.32
2022-10-08T13:28:59.897Z,18.30
2022-10-08T13:34:03.962Z,8.77
2022-10-08T13:39:01.799Z,6.65
2022-10-08T13:43:59.131Z,6.35
2022-10-08T13:48:56.470Z,8.07
2022-10-08T13:53:57.060Z,11.68
2022-10-08T13:58:54.486Z,10.60
2022-10-08T14:03:51.768Z,16.30
2022-10-08T14:08:49.031Z,14.48
2022-10-08T14:13:47.831Z,8.52
2022-10-08T14:18:45.045Z,5.82
2022-10-08T14:23:43.189Z,9.35
2022-10-08T14:28:40.821Z,9.80
2022-10-08T14:33:38.467Z,18.63
2022-10-08T14:38:36.307Z,8.23
2022-10-08T14:43:34.151Z,6.80
2022-10-08T14:48:32.921Z,13.40
2022-10-08T14:53:30.252Z,10.50
2022-10-08T14:58:27.821Z,4.82
2022-10-08T15:03:25.680Z,11.70
2022-10-08T15:08:22.893Z,8.25
2022-10-08T15:13:20.214Z,8.88
2022-10-08T15:18:17.673Z,7.70
2022-10-08T15:23:15.419Z,8.10
2022-10-08T15:28:12.721Z,8.32
2022-10-08T15:33:10.064Z,6.20
2022-10-08T15:38:07.384Z,8.13
2022-10-08T15:43:04.677Z,8.13
2022-10-08T15:48:02.087Z,16.80
2022-10-08T15:52:59.517Z,6.68
2022-10-08T15:57:56.782Z,7.95
2022-10-08T16:02:55.802Z,9.15
2022-10-08T16:07:56.350Z,6.10
2022-10-08T16:12:53.687Z,15.77
2022-10-08T16:17:51.682Z,7.22
2022-10-08T16:22:49.236Z,11.40
2022-10-08T16:27:47.078Z,6.25
2022-10-08T16:32:44.503Z,9.85
2022-10-08T16:37:41.811Z,8.77
2022-10-08T16:42:38.969Z,7.07
2022-10-08T16:47:37.827Z,14.20
2022-10-08T16:52:35.324Z,14.38
2022-10-08T16:57:32.917Z,11.80
2022-10-08T17:02:30.235Z,9.43
2022-10-08T17:07:27.600Z,13.15
2022-10-08T17:12:24.960Z,10.65
2022-10-08T17:17:22.271Z,12.32
2022-10-08T17:22:21.673Z,11.68
2022-10-08T17:27:18.992Z,17.15
2022-10-08T17:32:16.176Z,15.30
2022-10-08T17:37:13.415Z,13.50
2022-10-08T17:42:11.067Z,32.03
2022-10-08T17:47:08.753Z,11.13
2022-10-08T17:52:06.087Z,16.63
2022-10-08T17:57:03.379Z,18.60
2022-10-08T18:02:00.836Z,24.92
2022-10-08T18:07:02.619Z,25.23
2022-10-08T18:12:00.801Z,24.83
2022-10-08T18:16:58.287Z,19.23
2022-10-08T18:21:55.522Z,21.48
2022-10-08T18:26:52.832Z,16.63
2022-10-08T18:31:50.155Z,18.20
2022-10-08T18:36:47.705Z,16.92
2022-10-08T18:41:50.197Z,12.93
2022-10-08T18:46:47.958Z,20.38
2022-10-08T18:51:45.935Z,25.45
2022-10-08T18:56:43.536Z,16.10
2022-10-08T19:01:45.846Z,15.82
2022-10-08T19:06:44.797Z,21.60
2022-10-08T19:11:48.187Z,18.77
2022-10-08T19:16:46.332Z,15.93
2022-10-08T19:21:44.162Z,19.20
2022-10-08T19:26:41.701Z,15.48
2022-10-08T19:31:39.016Z,21.85
2022-10-08T19:36:38.463Z,15.57
2022-10-08T19:41:35.977Z,16.63
2022-10-08T19:46:33.411Z,13.32
2022-10-08T19:51:32.122Z,20.85
2022-10-08T19:56:30.495Z,16.92
2022-10-08T20:01:37.640Z,17.08
2022-10-08T20:06:38.883Z,28.65
2022-10-08T20:11:36.207Z,16.58
2022-10-08T20:16:36.994Z,21.73
2022-10-08T20:21:37.696Z,13.57
2022-10-08T20:26:37.900Z,15.90
2022-10-08T20:36:34.855Z,14.70
2022-10-08T20:41:32.273Z,14.82
2022-10-08T20:46:30.462Z,12.85
2022-10-08T20:51:29.761Z,12.73
2022-10-08T20:56:28.950Z,15.05
2022-10-08T21:01:31.647Z,22.90
2022-10-08T21:06:31.780Z,15.23
2022-10-08T21:11:30.633Z,16.65
2022-10-08T21:16:31.840Z,18.58
2022-10-08T21:21:31.084Z,19.75
2022-10-08T21:26:30.878Z,19.93
2022-10-08T21:31:32.000Z,18.45
2022-10-08T21:36:35.382Z,26.77
2022-10-08T21:41:34.505Z,15.50
2022-10-08T21:46:34.288Z,14.77
2022-10-08T21:51:32.967Z,23.10
2022-10-08T21:56:32.718Z,23.33
2022-10-08T22:01:35.777Z,16.67
2022-10-08T22:06:37.368Z,17.45
2022-10-08T22:11:34.919Z,12.98
2022-10-08T22:16:32.602Z,17.77
2022-10-08T22:21:30.089Z,16.30
2022-10-08T22:26:34.015Z,18.80
2022-10-08T22:31:31.508Z,15.93
2022-10-08T22:36:31.216Z,25.90
2022-10-08T22:41:31.740Z,25.35
2022-10-08T22:46:31.841Z,18.92
2022-10-08T22:51:30.045Z,26.48
2022-10-08T22:56:29.990Z,32.30
2022-10-08T23:01:29.136Z,17.45
2022-10-08T23:06:29.490Z,18.80
2022-10-08T23:11:28.537Z,20.25
2022-10-08T23:16:27.884Z,22.05
2022-10-08T23:21:25.969Z,20.77
2022-10-08T23:26:25.072Z,20.25
2022-10-08T23:31:25.281Z,20.83
2022-10-08T23:36:28.241Z,12.77
2022-10-08T23:41:26.467Z,15.05
2022-10-08T23:46:27.376Z,17.77
2022-10-08T23:51:25.847Z,15.48
2022-10-08T23:56:23.095Z,17.75
